Time;durP1;ratioP1;P1;durP2;ratioP2;P2;SDS_P1;SDS_P2;PMS_P1;PMS_P2;Temp;Humidity;BMP_temperature;BMP_pressure;BME280_temperature;BME280_humidity;BME280_pressure;Samples;Min_cycle;Max_cycle;Signal;HPM_P1;HPM_P2
2022/12/22 03:27:53;;;;;;;18.33;14.03;;;5.90;99.90;;;;;;5067327;28;20547;-73
2022/12/22 03:30:20;;;;;;;16.60;12.97;;;5.80;99.90;;;;;;5079920;28;20293;-73
2022/12/22 03:32:48;;;;;;;18.10;13.27;;;5.80;99.90;;;;;;5066921;28;20346;-73
2022/12/22 03:35:16;;;;;;;16.77;12.93;;;5.80;99.90;;;;;;5066923;28;20302;-73
2022/12/22 03:37:42;;;;;;;15.33;12.50;;;5.80;99.90;;;;;;5066976;28;20295;-73
2022/12/22 03:40:10;;;;;;;15.47;12.53;;;5.80;99.90;;;;;;5066670;28;20294;-73
2022/12/22 03:48:07;;;;;;;14.83;12.30;;;5.80;99.90;;;;;;5075268;28;20242;-73
2022/12/22 03:50:34;;;;;;;16.97;12.77;;;5.80;99.90;;;;;;5079260;28;20298;-73
2022/12/22 03:53:01;;;;;;;16.47;12.67;;;5.70;99.90;;;;;;5087456;28;20317;-73
2022/12/22 03:55:27;;;;;;;16.77;13.23;;;5.80;99.90;;;;;;5086760;28;20302;-73
2022/12/22 03:57:54;;;;;;;15.60;12.57;;;5.80;99.90;;;;;;5087365;28;20313;-73
2022/12/22 04:00:21;;;;;;;16.23;12.30;;;5.80;99.90;;;;;;5090620;28;20293;-73
2022/12/22 04:02:48;;;;;;;15.87;12.03;;;5.80;99.90;;;;;;5091469;28;20297;-73
2022/12/22 04:05:17;;;;;;;14.73;11.37;;;5.80;99.90;;;;;;5090910;28;20576;-73
2022/12/22 04:07:43;;;;;;;14.30;11.93;;;5.90;99.90;;;;;;5091481;28;20207;-73
2022/12/22 04:12:55;;;;;;;17.50;12.60;;;5.90;99.90;;;;;;5091071;28;20225;-73
2022/12/22 04:15:22;;;;;;;15.37;12.30;;;5.90;99.90;;;;;;5091120;28;20210;-73
2022/12/22 04:17:49;;;;;;;16.40;12.63;;;5.90;99.90;;;;;;5090862;28;20293;-73
2022/12/22 04:20:17;;;;;;;17.30;12.30;;;5.90;99.90;;;;;;5090914;28;20289;-73
2022/12/22 04:22:45;;;;;;;16.93;12.57;;;5.90;99.90;;;;;;5091191;28;20218;-73
2022/12/22 04:25:12;;;;;;;14.83;11.80;;;5.90;99.90;;;;;;5090732;28;20213;-73
2022/12/22 04:27:39;;;;;;;14.37;11.63;;;5.90;99.90;;;;;;5082024;28;20206;-73
2022/12/22 04:30:07;;;;;;;14.07;11.27;;;5.90;99.90;;;;;;5070853;28;20302;-73
2022/12/22 04:32:34;;;;;;;15.87;12.67;;;5.90;99.90;;;;;;5070170;28;20342;-73
2022/12/22 04:35:01;;;;;;;16.10;12.57;;;5.90;99.90;;;;;;5070709;28;20616;-73
2022/12/22 04:37:30;;;;;;;18.23;11.80;;;5.90;99.90;;;;;;5070472;28;20282;-73
2022/12/22 04:39:56;;;;;;;14.57;11.47;;;5.90;99.90;;;;;;5070322;28;20211;-73
2022/12/22 04:42:23;;;;;;;16.93;12.63;;;5.90;99.90;;;;;;5070442;28;20331;-73
2022/12/22 04:44:51;;;;;;;14.33;11.37;;;6.00;99.90;;;;;;5070393;28;20290;-73
2022/12/22 04:47:18;;;;;;;13.83;11.60;;;5.90;99.90;;;;;;5069945;28;20199;-73
2022/12/22 04:49:44;;;;;;;15.10;12.20;;;5.90;99.90;;;;;;5070154;28;20282;-73
2022/12/22 04:52:11;;;;;;;15.63;12.40;;;5.90;99.90;;;;;;5070167;28;20326;-73
2022/12/22 04:54:40;;;;;;;16.37;12.33;;;5.90;99.90;;;;;;5069630;28;20303;-73
2022/12/22 04:57:06;;;;;;;14.80;11.67;;;5.90;99.90;;;;;;5069830;28;20745;-73
2022/12/22 04:59:33;;;;;;;16.07;12.27;;;5.80;99.90;;;;;;5069936;28;20214;-73
2022/12/22 05:02:00;;;;;;;15.87;11.97;;;5.90;99.90;;;;;;5069649;28;20298;-73
2022/12/22 05:04:27;;;;;;;17.03;13.00;;;5.90;99.90;;;;;;5069581;28;20289;-73
2022/12/22 05:06:54;;;;;;;17.03;12.83;;;6.00;99.90;;;;;;5069534;28;20210;-73
2022/12/22 05:09:21;;;;;;;18.10;13.63;;;6.00;99.90;;;;;;5069045;28;20295;-73
2022/12/22 05:11:49;;;;;;;16.53;13.27;;;6.00;99.90;;;;;;5069786;28;20231;-73
2022/12/22 05:14:16;;;;;;;15.83;13.37;;;6.00;99.90;;;;;;5069427;28;20211;-73
2022/12/22 05:16:43;;;;;;;21.07;14.00;;;6.00;99.90;;;;;;5069427;28;20203;-73
2022/12/22 05:19:10;;;;;;;19.43;13.73;;;6.00;99.90;;;;;;5069545;28;20478;-73
2022/12/22 05:21:36;;;;;;;22.20;14.57;;;6.00;99.90;;;;;;5084729;28;20212;-73
2022/12/22 05:24:04;;;;;;;16.60;13.97;;;6.00;99.90;;;;;;5079566;28;20778;-73
2022/12/22 05:26:31;;;;;;;19.00;14.23;;;6.00;99.90;;;;;;5069403;28;20294;-74
2022/12/22 05:28:59;;;;;;;20.67;14.40;;;5.90;99.90;;;;;;5069474;28;20294;-73
2022/12/22 05:31:26;;;;;;;18.53;14.17;;;5.90;99.90;;;;;;5068928;28;20600;-73
2022/12/22 05:33:53;;;;;;;18.60;14.03;;;5.90;99.90;;;;;;5069380;28;20290;-73
2022/12/22 05:36:20;;;;;;;19.63;13.90;;;5.90;99.90;;;;;;5069209;28;20214;-73
2022/12/22 05:38:47;;;;;;;19.70;14.27;;;5.90;99.90;;;;;;5074083;28;20229;-73
2022/12/22 05:41:14;;;;;;;18.00;14.30;;;5.90;99.90;;;;;;5088967;28;21236;-73
2022/12/22 05:43:41;;;;;;;21.13;15.20;;;6.00;99.90;;;;;;5089233;28;20214;-73
2022/12/22 05:46:11;;;;;;;18.60;14.50;;;5.90;99.90;;;;;;5089095;28;20205;-73
2022/12/22 05:48:38;;;;;;;16.47;13.73;;;6.00;99.90;;;;;;5073100;28;20668;-73
2022/12/22 05:51:06;;;;;;;20.73;14.80;;;5.90;99.90;;;;;;5080040;28;20206;-73
2022/12/22 05:53:33;;;;;;;18.73;15.13;;;5.90;99.90;;;;;;5088733;28;20240;-73
2022/12/22 05:56:00;;;;;;;17.70;14.13;;;5.90;99.90;;;;;;5088763;28;20203;-74
2022/12/22 05:58:27;;;;;;;19.57;14.10;;;5.90;99.90;;;;;;5089371;28;20297;-73
2022/12/22 06:00:59;;;;;;;19.10;14.43;;;5.90;99.90;;;;;;5088860;28;20756;-73
2022/12/22 06:03:28;;;;;;;20.23;14.43;;;6.00;99.90;;;;;;5088965;28;20282;-73
2022/12/22 06:05:55;;;;;;;19.30;14.60;;;5.90;99.90;;;;;;5089138;28;20290;-73
2022/12/22 06:08:22;;;;;;;18.30;14.23;;;6.00;99.90;;;;;;5088912;28;20304;-73
2022/12/22 06:10:49;;;;;;;17.67;13.37;;;6.00;99.90;;;;;;5088304;28;20212;-73
2022/12/22 06:13:16;;;;;;;18.27;14.17;;;6.00;99.90;;;;;;5089026;28;20322;-73
2022/12/22 06:15:43;;;;;;;17.83;13.30;;;6.00;99.90;;;;;;5088929;28;20301;-73
2022/12/22 06:18:09;;;;;;;18.17;14.07;;;6.00;99.90;;;;;;5088743;28;20289;-73
2022/12/22 06:20:38;;;;;;;16.57;13.53;;;6.10;99.90;;;;;;5088127;28;20404;-73
2022/12/22 06:23:05;;;;;;;18.37;14.40;;;6.00;99.90;;;;;;5087558;28;20637;-73
2022/12/22 06:25:31;;;;;;;21.90;14.53;;;6.00;99.90;;;;;;5088236;28;20242;-73
2022/12/22 06:27:58;;;;;;;17.53;14.40;;;6.10;99.90;;;;;;5088691;28;20298;-73
2022/12/22 06:30:25;;;;;;;19.00;13.90;;;6.10;99.90;;;;;;5088445;28;20321;-73
2022/12/22 06:32:52;;;;;;;16.77;13.30;;;6.10;99.90;;;;;;5088721;28;20245;-73
2022/12/22 06:35:19;;;;;;;18.33;13.80;;;6.10;99.90;;;;;;5088151;28;20226;-73
2022/12/22 06:37:47;;;;;;;19.47;14.70;;;6.10;99.90;;;;;;5088492;28;20206;-73
2022/12/22 06:40:14;;;;;;;17.97;13.30;;;6.10;99.90;;;;;;5087927;28;20238;-73
2022/12/22 06:45:25;;;;;;;17.50;13.47;;;6.10;99.90;;;;;;5087930;28;20735;-73
2022/12/22 06:47:52;;;;;;;18.47;14.50;;;6.20;99.90;;;;;;5078355;28;20701;-73
2022/12/22 06:50:19;;;;;;;21.13;14.27;;;6.10;99.90;;;;;;5072091;28;20679;-73
2022/12/22 06:52:47;;;;;;;18.97;13.87;;;6.20;99.90;;;;;;5087705;28;20787;-73
2022/12/22 06:55:14;;;;;;;22.73;14.47;;;6.10;99.90;;;;;;5087797;28;20211;-73
2022/12/22 06:57:41;;;;;;;19.13;14.47;;;6.10;99.90;;;;;;5088073;28;20238;-73
2022/12/22 07:00:10;;;;;;;18.57;14.43;;;6.20;99.90;;;;;;5087825;28;20255;-73
2022/12/22 07:02:37;;;;;;;17.30;14.90;;;6.10;99.90;;;;;;5087750;28;20754;-73
2022/12/22 07:05:04;;;;;;;20.53;14.73;;;6.20;99.90;;;;;;5087659;28;20754;-73
2022/12/22 07:07:31;;;;;;;19.23;14.40;;;6.20;99.90;;;;;;5087633;28;20207;-73
2022/12/22 07:09:59;;;;;;;18.77;14.30;;;6.20;99.90;;;;;;5087887;28;20302;-73
2022/12/22 07:12:27;;;;;;;19.57;14.80;;;6.20;99.90;;;;;;5087264;28;20780;-73
2022/12/22 07:14:53;;;;;;;18.53;13.63;;;6.20;99.90;;;;;;5087246;28;20301;-73
2022/12/22 07:17:20;;;;;;;19.50;14.67;;;6.20;99.90;;;;;;5070938;28;20298;-73
2022/12/22 07:19:47;;;;;;;18.00;14.63;;;6.20;99.90;;;;;;5067279;28;20665;-73
2022/12/22 07:22:14;;;;;;;17.73;13.77;;;6.30;99.90;;;;;;5067585;28;20265;-73
2022/12/22 07:24:41;;;;;;;16.00;13.27;;;6.20;99.90;;;;;;5083689;28;20580;-73
2022/12/22 07:27:09;;;;;;;18.17;13.63;;;6.20;99.90;;;;;;5087216;28;20199;-73
2022/12/22 07:29:37;;;;;;;17.53;13.93;;;6.30;99.90;;;;;;5086861;28;20256;-73
2022/12/22 07:32:05;;;;;;;16.30;13.57;;;6.30;99.90;;;;;;5087368;28;20199;-73
2022/12/22 07:34:31;;;;;;;16.43;13.77;;;6.30;99.90;;;;;;5086112;28;20282;-73
2022/12/22 07:36:58;;;;;;;18.73;14.50;;;6.20;99.90;;;;;;5087346;28;20230;-73
2022/12/22 07:39:25;;;;;;;20.03;13.83;;;6.30;99.90;;;;;;5072484;28;20299;-73
2022/12/22 07:44:34;;;;;;;17.37;13.57;;;6.20;99.90;;;;;;5043879;28;20199;-73
2022/12/22 07:47:01;;;;;;;17.30;13.57;;;6.30;99.90;;;;;;5066973;28;20242;-73
2022/12/22 07:52:12;;;;;;;15.30;13.17;;;6.30;99.90;;;;;;5067053;28;20760;-73
2022/12/22 07:54:39;;;;;;;17.07;13.70;;;6.30;99.90;;;;;;5066474;28;20215;-73
2022/12/22 07:57:06;;;;;;;18.10;13.33;;;6.30;99.90;;;;;;5067102;28;20238;-73
2022/12/22 07:59:34;;;;;;;16.90;12.83;;;6.30;99.90;;;;;;5067097;28;20213;-73
2022/12/22 08:02:01;;;;;;;16.47;13.87;;;6.30;99.90;;;;;;5067174;28;20216;-73
2022/12/22 08:04:28;;;;;;;16.73;13.80;;;6.30;99.90;;;;;;5067312;28;20208;-73
2022/12/22 08:06:55;;;;;;;19.10;13.77;;;6.30;99.90;;;;;;5067188;28;20230;-73
2022/12/22 08:09:22;;;;;;;16.37;13.10;;;6.30;99.90;;;;;;5066812;28;20203;-73
2022/12/22 08:11:49;;;;;;;17.53;13.27;;;6.30;99.90;;;;;;5080595;28;20218;-73
2022/12/22 08:14:16;;;;;;;18.10;13.27;;;6.30;99.90;;;;;;5066998;28;20235;-73
2022/12/22 08:16:44;;;;;;;16.60;13.20;;;6.30;99.90;;;;;;5067158;28;20310;-73
2022/12/22 08:19:11;;;;;;;17.67;13.10;;;6.30;99.90;;;;;;5066968;28;20305;-73
2022/12/22 08:21:38;;;;;;;17.80;13.63;;;6.30;99.90;;;;;;5082451;28;20207;-73
2022/12/22 08:24:06;;;;;;;15.93;12.40;;;6.30;99.90;;;;;;5086812;28;20207;-73
2022/12/22 08:26:36;;;;;;;18.67;12.97;;;6.30;99.90;;;;;;5086687;28;20290;-73
2022/12/22 08:29:07;;;;;;;16.60;12.87;;;6.30;99.90;;;;;;5086696;28;20294;-73
2022/12/22 08:31:35;;;;;;;16.17;13.03;;;6.30;99.90;;;;;;5086760;28;20199;-73
2022/12/22 08:34:05;;;;;;;19.70;12.97;;;6.40;99.90;;;;;;5086939;28;20248;-73
2022/12/22 08:36:36;;;;;;;15.47;11.90;;;6.40;99.90;;;;;;5086995;28;20298;-73
2022/12/22 08:39:04;;;;;;;15.40;12.80;;;6.40;99.90;;;;;;5086744;28;20270;-73
2022/12/22 08:41:50;;;;;;;16.13;12.47;;;6.40;99.90;;;;;;5086748;28;20240;-73
2022/12/22 08:44:17;;;;;;;18.43;13.03;;;6.40;99.90;;;;;;5086515;28;20661;-73
2022/12/22 08:46:44;;;;;;;16.13;12.87;;;6.50;99.90;;;;;;5090583;28;20195;-73
2022/12/22 08:49:13;;;;;;;14.63;11.97;;;6.50;99.90;;;;;;5070134;28;20251;-73
2022/12/22 08:51:39;;;;;;;16.43;12.83;;;6.50;99.90;;;;;;5085942;28;20206;-73
2022/12/22 08:54:06;;;;;;;14.17;12.00;;;6.50;99.90;;;;;;5090283;28;20237;-73
2022/12/22 08:56:34;;;;;;;16.37;12.40;;;6.50;99.90;;;;;;5089822;28;20763;-73
2022/12/22 08:59:03;;;;;;;13.90;11.83;;;6.60;99.90;;;;;;5089972;28;20297;-73
2022/12/22 09:01:32;;;;;;;15.10;11.40;;;6.50;99.90;;;;;;5090008;28;20295;-73
2022/12/22 09:03:59;;;;;;;17.00;11.50;;;6.60;99.90;;;;;;5090179;28;20655;-73
2022/12/22 09:06:27;;;;;;;19.23;12.57;;;6.60;99.90;;;;;;5089622;28;20738;-73
2022/12/22 09:08:55;;;;;;;13.97;11.30;;;6.50;99.90;;;;;;5081074;28;20211;-73
2022/12/22 09:11:22;;;;;;;13.27;11.27;;;6.60;99.90;;;;;;5069138;28;20839;-73
2022/12/22 09:13:51;;;;;;;15.60;11.80;;;6.60;99.90;;;;;;5069562;28;20646;-73
2022/12/22 09:16:19;;;;;;;13.53;11.07;;;6.60;99.90;;;;;;5069464;28;20569;-73
2022/12/22 09:18:46;;;;;;;16.37;11.57;;;6.60;99.90;;;;;;5069753;28;20237;-73
2022/12/22 09:21:13;;;;;;;15.30;11.07;;;6.60;99.90;;;;;;5081723;28;20492;-73
2022/12/22 09:23:42;;;;;;;13.40;10.70;;;6.70;99.90;;;;;;5086038;28;20199;-73
2022/12/22 09:26:10;;;;;;;15.27;11.23;;;6.70;99.90;;;;;;5069020;28;20207;-73
2022/12/22 09:28:37;;;;;;;14.87;11.97;;;6.70;99.90;;;;;;5085811;28;20584;-73
2022/12/22 09:31:05;;;;;;;15.60;12.27;;;6.70;99.90;;;;;;5089655;28;20264;-73
2022/12/22 09:33:32;;;;;;;13.33;11.63;;;6.70;99.90;;;;;;5089521;28;20318;-73
2022/12/22 09:35:59;;;;;;;17.43;11.83;;;6.70;99.90;;;;;;5089608;28;20298;-73
2022/12/22 09:38:27;;;;;;;14.97;11.80;;;6.70;99.90;;;;;;5089078;28;20302;-73
2022/12/22 09:40:56;;;;;;;14.13;11.70;;;6.70;99.90;;;;;;5089172;28;20207;-73
2022/12/22 09:43:28;;;;;;;13.70;11.60;;;6.70;99.90;;;;;;5089138;28;20230;-73
2022/12/22 09:45:56;;;;;;;15.57;11.30;;;6.70;99.90;;;;;;5089581;28;20231;-73
2022/12/22 09:48:25;;;;;;;14.97;10.27;;;6.70;99.90;;;;;;5074845;28;20330;-73
2022/12/22 09:50:52;;;;;;;13.90;11.57;;;6.70;99.90;;;;;;5078138;28;20207;-73
2022/12/22 09:53:22;;;;;;;14.93;10.83;;;6.70;99.90;;;;;;5088511;28;20708;-73
2022/12/22 09:55:50;;;;;;;13.97;10.93;;;6.80;99.90;;;;;;5088260;28;20282;-73
2022/12/22 09:58:25;;;;;;;12.90;10.87;;;6.70;99.90;;;;;;5088281;28;20242;-73
2022/12/22 10:00:59;;;;;;;10.93;9.77;;;6.80;99.90;;;;;;5089179;28;20285;-73
2022/12/22 10:03:34;;;;;;;12.10;10.23;;;6.70;99.90;;;;;;5088776;28;20199;-73
2022/12/22 10:06:09;;;;;;;11.47;9.67;;;6.70;99.90;;;;;;5072917;28;20213;-73
2022/12/22 10:08:39;;;;;;;12.30;9.77;;;6.70;99.90;;;;;;5068815;28;20202;-73
2022/12/22 10:11:07;;;;;;;10.57;9.27;;;6.70;99.90;;;;;;5068255;28;20291;-73
2022/12/22 10:13:35;;;;;;;11.47;9.87;;;6.70;99.90;;;;;;5068368;28;20326;-73
2022/12/22 10:16:16;;;;;;;11.80;9.73;;;6.80;99.90;;;;;;5068532;28;20239;-73
2022/12/22 10:18:55;;;;;;;10.50;9.30;;;6.80;99.90;;;;;;5068639;28;20193;-73
2022/12/22 10:21:23;;;;;;;12.33;10.23;;;6.70;99.90;;;;;;5083459;28;20206;-73
2022/12/22 10:23:51;;;;;;;14.03;10.20;;;6.80;99.90;;;;;;5079884;28;20200;-73
2022/12/22 10:26:21;;;;;;;11.90;9.53;;;6.80;99.90;;;;;;5067728;28;20578;-73
2022/12/22 10:28:51;;;;;;;11.20;9.97;;;6.80;99.90;;;;;;5087671;28;20207;-73
2022/12/22 10:31:20;;;;;;;11.13;9.97;;;6.80;99.90;;;;;;5088486;28;20201;-73
2022/12/22 10:33:49;;;;;;;12.23;9.50;;;6.80;99.90;;;;;;5088200;28;20353;-73
2022/12/22 10:36:21;;;;;;;11.83;9.77;;;6.80;99.90;;;;;;5088468;28;20286;-73
2022/12/22 10:39:01;;;;;;;10.50;9.47;;;6.90;99.90;;;;;;5088411;28;20278;-73
2022/12/22 10:41:31;;;;;;;11.40;10.03;;;6.80;99.90;;;;;;5088103;28;20220;-73
2022/12/22 10:44:01;;;;;;;10.90;9.77;;;6.80;99.90;;;;;;5088224;28;20297;-73
2022/12/22 10:46:35;;;;;;;10.97;9.33;;;6.90;99.90;;;;;;5088102;28;20203;-73
2022/12/22 10:49:15;;;;;;;10.73;9.57;;;6.90;99.90;;;;;;5068383;28;20227;-73
2022/12/22 10:51:45;;;;;;;11.77;9.83;;;6.90;99.90;;;;;;5084212;28;20429;-73
2022/12/22 10:54:25;;;;;;;10.87;9.40;;;6.80;99.90;;;;;;5088166;28;20230;-73
2022/12/22 10:57:01;;;;;;;11.13;9.40;;;6.80;99.90;;;;;;5087543;28;20297;-73
2022/12/22 10:59:29;;;;;;;10.33;9.33;;;6.90;99.90;;;;;;5087973;28;20226;-73
2022/12/22 11:02:23;;;;;;;11.60;9.93;;;6.80;99.90;;;;;;5075156;28;20294;-73
2022/12/22 11:04:50;;;;;;;9.90;8.90;;;6.90;99.90;;;;;;5067480;28;20224;-73
2022/12/22 11:07:18;;;;;;;10.53;9.23;;;6.80;99.90;;;;;;5067291;28;20280;-73
2022/12/22 11:09:45;;;;;;;11.80;10.60;;;6.90;99.90;;;;;;5066954;28;20270;-73
2022/12/22 11:12:22;;;;;;;10.87;9.77;;;6.80;99.90;;;;;;5067515;28;20254;-73
2022/12/22 11:14:57;;;;;;;12.23;9.47;;;6.80;99.90;;;;;;5067265;28;20215;-74
2022/12/22 11:17:35;;;;;;;11.00;9.50;;;6.80;99.90;;;;;;5081067;28;20270;-73
2022/12/22 11:20:34;;;;;;;10.50;8.87;;;6.80;99.90;;;;;;5087538;28;20282;-73
2022/12/22 11:23:06;;;;;;;9.93;8.70;;;6.80;99.90;;;;;;5087281;28;20294;-73
2022/12/22 11:25:42;;;;;;;10.03;8.97;;;6.80;99.90;;;;;;5087224;28;20194;-73
2022/12/22 11:28:22;;;;;;;11.43;9.50;;;6.90;99.90;;;;;;5087408;28;20317;-73
2022/12/22 11:31:02;;;;;;;10.77;9.67;;;6.90;99.90;;;;;;5087558;28;20201;-73
2022/12/22 11:33:42;;;;;;;9.87;8.47;;;6.80;99.90;;;;;;5087390;28;20225;-73
2022/12/22 11:36:15;;;;;;;9.60;8.57;;;6.90;99.90;;;;;;5087902;28;20587;-73
2022/12/22 11:38:49;;;;;;;10.57;8.90;;;6.90;99.90;;;;;;5087844;28;20190;-74
2022/12/22 11:41:35;;;;;;;12.97;9.57;;;6.90;99.90;;;;;;5087533;28;20297;-73
2022/12/22 11:44:18;;;;;;;10.93;9.63;;;7.00;99.90;;;;;;5087441;28;20882;-73
2022/12/22 11:46:54;;;;;;;10.10;9.17;;;7.00;99.90;;;;;;5087168;28;20205;-73
2022/12/22 11:49:39;;;;;;;9.27;8.33;;;7.00;99.90;;;;;;5066903;28;20700;-73
2022/12/22 11:52:21;;;;;;;8.77;7.97;;;7.00;99.90;;;;;;5086608;28;20302;-73
2022/12/22 11:55:12;;;;;;;8.90;8.10;;;7.00;99.90;;;;;;5086784;28;20229;-73
2022/12/22 11:57:51;;;;;;;9.20;8.30;;;7.00;99.90;;;;;;5070845;28;20692;-73
2022/12/22 12:00:19;;;;;;;9.10;8.27;;;7.00;99.90;;;;;;5066876;28;20763;-73
2022/12/22 12:03:21;;;;;;;9.20;8.30;;;7.00;99.90;;;;;;5067020;28;20306;-73
2022/12/22 12:06:22;;;;;;;8.97;8.03;;;7.00;99.90;;;;;;5067029;28;20494;-73
2022/12/22 12:09:02;;;;;;;9.10;8.20;;;7.00;99.90;;;;;;5067005;28;20592;-73
2022/12/22 12:11:35;;;;;;;9.40;8.50;;;7.00;99.90;;;;;;5066678;28;20223;-73
2022/12/22 12:14:10;;;;;;;9.50;8.50;;;7.00;99.90;;;;;;5083741;28;20310;-73
2022/12/22 12:16:44;;;;;;;9.70;8.73;;;7.00;99.90;;;;;;5076319;28;20287;-70
2022/12/22 12:19:45;;;;;;;37.23;9.90;;;7.00;99.90;;;;;;5069072;28;20279;-73
2022/12/22 12:22:19;;;;;;;10.73;8.97;;;7.00;99.90;;;;;;5070785;28;20195;-73
2022/12/22 12:24:59;;;;;;;10.43;9.33;;;7.00;99.90;;;;;;5088338;28;20288;-73
2022/12/22 12:27:45;;;;;;;11.80;9.67;;;7.10;99.90;;;;;;5090779;28;20194;-73
2022/12/22 12:30:15;;;;;;;9.87;8.87;;;7.10;99.90;;;;;;5090556;28;20732;-73
2022/12/22 12:32:49;;;;;;;10.43;9.07;;;7.00;99.90;;;;;;5090678;28;20657;-73
2022/12/22 12:35:49;;;;;;;9.73;8.83;;;7.10;99.90;;;;;;5090941;28;20314;-73
2022/12/22 12:38:27;;;;;;;10.00;9.00;;;7.00;99.90;;;;;;5057239;28;20314;-73
2022/12/22 12:41:00;;;;;;;9.30;8.40;;;7.00;99.90;;;;;;5090634;28;20195;-73
2022/12/22 12:43:27;;;;;;;9.47;8.57;;;7.10;99.90;;;;;;5090500;28;20646;-73
2022/12/22 12:45:54;;;;;;;9.53;8.67;;;7.10;99.90;;;;;;5090795;28;20309;-73
2022/12/22 12:48:38;;;;;;;9.30;8.30;;;7.10;99.90;;;;;;5076542;28;20242;-73
2022/12/22 12:51:48;;;;;;;8.47;7.70;;;7.10;99.90;;;;;;5081499;28;20207;-73
2022/12/22 12:54:37;;;;;;;8.00;7.30;;;7.10;99.90;;;;;;5090067;28;20329;-73
2022/12/22 12:57:26;;;;;;;8.23;7.40;;;7.10;99.90;;;;;;5081584;28;20298;-73
2022/12/22 12:59:54;;;;;;;7.43;6.83;;;7.00;99.90;;;;;;5087611;28;20207;-73
2022/12/22 13:02:35;;;;;;;7.80;7.10;;;7.10;99.90;;;;;;5089938;28;20230;-73
2022/12/22 13:05:32;;;;;;;7.67;7.07;;;7.10;99.90;;;;;;5090396;28;20273;-73
2022/12/22 13:08:15;;;;;;;7.50;6.90;;;7.10;99.90;;;;;;5089816;28;20248;-73
2022/12/22 13:10:45;;;;;;;6.93;6.43;;;7.10;99.90;;;;;;5069782;28;20234;-73
2022/12/22 13:13:28;;;;;;;6.67;6.17;;;7.10;99.90;;;;;;5082911;28;20280;-73
2022/12/22 13:16:29;;;;;;;6.80;6.30;;;7.10;99.90;;;;;;5089186;28;20314;-74
2022/12/22 13:18:58;;;;;;;6.93;6.33;;;7.10;99.90;;;;;;5089837;28;20199;-73
2022/12/22 13:21:29;;;;;;;7.13;6.63;;;7.00;99.90;;;;;;5083879;28;20211;-73
2022/12/22 13:24:04;;;;;;;6.17;5.67;;;7.10;99.90;;;;;;5089592;28;20234;-73
2022/12/22 13:26:34;;;;;;;6.60;6.10;;;7.10;99.90;;;;;;5089881;28;20190;-73
2022/12/22 13:29:09;;;;;;;6.90;6.30;;;7.10;99.90;;;;;;5090151;28;20625;-73
2022/12/22 13:31:41;;;;;;;5.90;5.50;;;7.10;99.90;;;;;;5089600;28;21010;-73
2022/12/22 13:34:35;;;;;;;6.50;5.90;;;7.10;99.90;;;;;;5089391;28;20219;-73
2022/12/22 13:37:12;;;;;;;6.80;6.10;;;7.10;99.90;;;;;;5089396;28;20744;-73
2022/12/22 13:39:40;;;;;;;5.50;5.10;;;7.20;99.90;;;;;;5088983;28;20201;-73
2022/12/22 13:42:10;;;;;;;12.30;7.50;;;7.10;99.90;;;;;;5089259;28;20234;-73
2022/12/22 13:44:38;;;;;;;8.67;7.73;;;7.20;99.90;;;;;;5089017;28;20225;-73
2022/12/22 13:47:12;;;;;;;20.67;10.60;;;7.30;99.90;;;;;;5086082;28;20204;-73
2022/12/22 13:49:41;;;;;;;8.10;7.30;;;7.30;99.90;;;;;;5072451;28;20253;-73
2022/12/22 13:52:13;;;;;;;9.17;8.27;;;7.50;99.90;;;;;;5089183;28;20331;-73
2022/12/22 13:54:45;;;;;;;8.77;7.97;;;7.60;99.90;;;;;;5088445;28;20972;-73
2022/12/22 13:57:17;;;;;;;11.23;8.87;;;7.70;99.90;;;;;;5089141;28;20645;-73
2022/12/22 13:59:47;;;;;;;9.83;8.30;;;7.80;99.90;;;;;;5088720;28;20206;-73
2022/12/22 14:02:17;;;;;;;10.57;9.30;;;7.90;99.90;;;;;;5088828;28;20206;-73
2022/12/22 14:05:02;;;;;;;10.43;8.97;;;7.90;99.90;;;;;;5088571;28;20214;-73
2022/12/22 14:07:29;;;;;;;10.60;8.63;;;8.00;99.90;;;;;;5088828;28;20676;-73
2022/12/22 14:09:57;;;;;;;9.77;8.67;;;8.10;99.90;;;;;;5088708;28;20297;-73
2022/12/22 14:12:26;;;;;;;9.90;8.93;;;8.10;99.90;;;;;;5088781;28;20286;-73
2022/12/22 14:14:56;;;;;;;10.40;9.03;;;8.20;99.90;;;;;;5088678;28;20234;-73
2022/12/22 14:17:25;;;;;;;9.83;8.80;;;8.20;99.90;;;;;;5088318;28;20613;-73
2022/12/22 14:19:54;;;;;;;9.93;9.00;;;8.20;99.90;;;;;;5088541;28;20301;-73
2022/12/22 14:22:23;;;;;;;10.80;9.70;;;8.10;99.90;;;;;;5088455;28;20215;-73
2022/12/22 14:24:55;;;;;;;10.63;9.53;;;8.20;99.90;;;;;;5088547;28;20256;-73
2022/12/22 14:27:33;;;;;;;9.80;8.90;;;8.20;99.90;;;;;;5088427;28;20284;-73
2022/12/22 14:30:02;;;;;;;10.90;9.90;;;8.20;99.90;;;;;;5088552;28;20191;-73
2022/12/22 14:32:36;;;;;;;11.43;9.07;;;8.30;99.90;;;;;;5088311;28;20214;-73
2022/12/22 14:35:03;;;;;;;10.23;9.23;;;8.20;99.90;;;;;;5088337;28;20227;-73
2022/12/22 14:37:30;;;;;;;9.20;8.20;;;8.30;99.90;;;;;;5087737;28;20301;-73
2022/12/22 14:39:57;;;;;;;11.50;9.80;;;8.30;99.90;;;;;;5088247;28;20347;-73
2022/12/22 14:42:25;;;;;;;9.20;8.30;;;8.30;99.90;;;;;;5087638;28;20213;-73
2022/12/22 14:44:52;;;;;;;8.97;8.03;;;8.40;99.90;;;;;;5088280;28;20713;-73
2022/12/22 14:47:24;;;;;;;8.00;7.30;;;8.30;99.90;;;;;;5071702;28;20295;-74
2022/12/22 14:49:55;;;;;;;8.17;7.37;;;8.30;99.90;;;;;;5068381;28;20549;-73
2022/12/22 14:52:27;;;;;;;7.97;7.27;;;8.30;99.90;;;;;;5087758;28;20325;-73
2022/12/22 14:54:55;;;;;;;8.20;7.50;;;8.30;99.90;;;;;;5087469;28;20218;-73
2022/12/22 14:57:30;;;;;;;7.87;7.17;;;8.30;99.90;;;;;;5087895;28;20293;-73
2022/12/22 15:00:00;;;;;;;8.13;7.43;;;8.30;99.90;;;;;;5088065;28;20195;-73
2022/12/22 15:02:30;;;;;;;7.63;7.00;;;8.30;99.90;;;;;;5087505;28;20203;-73
2022/12/22 15:05:24;;;;;;;7.73;7.03;;;8.30;99.90;;;;;;5088035;28;20294;-73
2022/12/22 15:07:53;;;;;;;8.57;7.73;;;8.30;99.90;;;;;;5087502;28;20201;-73
2022/12/22 15:10:21;;;;;;;8.13;7.07;;;8.30;99.90;;;;;;5087465;28;20294;-73
2022/12/22 15:12:50;;;;;;;7.73;6.93;;;8.30;99.90;;;;;;5087571;28;20290;-73
2022/12/22 15:15:19;;;;;;;7.73;7.10;;;8.30;99.90;;;;;;5087297;28;20317;-73
2022/12/22 15:17:48;;;;;;;7.90;6.97;;;8.30;99.90;;;;;;5087607;28;21058;-73
2022/12/22 15:20:19;;;;;;;8.13;7.33;;;8.20;99.90;;;;;;5083352;28;20242;-73
2022/12/22 15:22:45;;;;;;;7.80;7.10;;;8.20;99.90;;;;;;5068576;28;20788;-73
2022/12/22 15:25:14;;;;;;;7.53;6.80;;;8.20;99.90;;;;;;5087570;28;20473;-73
2022/12/22 15:27:41;;;;;;;7.93;7.20;;;8.20;99.90;;;;;;5087546;28;20207;-73
2022/12/22 15:30:12;;;;;;;7.80;7.20;;;8.20;99.90;;;;;;5087245;28;20661;-73
2022/12/22 15:32:39;;;;;;;8.67;7.77;;;8.30;99.90;;;;;;5087445;28;20549;-73
2022/12/22 15:35:16;;;;;;;12.30;7.83;;;8.30;99.90;;;;;;5087505;28;20232;-73
2022/12/22 15:37:43;;;;;;;8.70;7.90;;;8.20;99.90;;;;;;5087352;28;20676;-73
2022/12/22 15:40:17;;;;;;;9.33;7.93;;;8.30;99.90;;;;;;5087300;28;20213;-73
2022/12/22 15:42:45;;;;;;;10.07;8.50;;;8.30;99.90;;;;;;5078720;28;20238;-73
2022/12/22 15:45:14;;;;;;;9.53;8.23;;;8.30;99.90;;;;;;5067256;28;20223;-73
2022/12/22 15:47:42;;;;;;;11.53;9.37;;;8.30;99.90;;;;;;5066340;28;20314;-73
2022/12/22 15:50:16;;;;;;;10.57;9.57;;;8.30;99.90;;;;;;5070553;28;20238;-73
2022/12/22 15:52:47;;;;;;;13.70;11.13;;;8.40;99.90;;;;;;5087377;28;20681;-73
2022/12/22 15:55:15;;;;;;;18.23;12.40;;;8.30;99.90;;;;;;5088738;28;20318;-73
2022/12/22 15:57:43;;;;;;;15.40;11.73;;;8.30;99.90;;;;;;5091275;28;20209;-73
2022/12/22 16:00:11;;;;;;;19.70;13.57;;;8.30;99.90;;;;;;5091515;28;20279;-73
2022/12/22 16:02:39;;;;;;;20.93;13.80;;;8.30;99.90;;;;;;5090878;28;20252;-73
2022/12/22 16:05:07;;;;;;;20.90;13.73;;;8.30;99.90;;;;;;5091025;28;20210;-73
2022/12/22 16:07:35;;;;;;;23.80;15.53;;;8.30;99.90;;;;;;5091159;28;20199;-73
2022/12/22 16:10:03;;;;;;;22.07;14.83;;;8.30;99.90;;;;;;5072731;28;20298;-73
2022/12/22 16:12:31;;;;;;;23.23;14.60;;;8.30;99.90;;;;;;5070735;28;20204;-73
2022/12/22 16:14:59;;;;;;;22.97;15.63;;;8.30;99.90;;;;;;5070603;28;20671;-73
2022/12/22 16:17:27;;;;;;;23.97;15.77;;;8.20;99.90;;;;;;5070777;28;20222;-73
2022/12/22 16:19:55;;;;;;;25.70;16.47;;;8.20;99.90;;;;;;5071992;28;20231;-73
2022/12/22 16:22:31;;;;;;;24.10;16.43;;;8.10;99.90;;;;;;5090818;28;20709;-73
2022/12/22 16:24:59;;;;;;;21.93;14.60;;;8.20;99.90;;;;;;5071498;28;20290;-73
2022/12/22 16:27:25;;;;;;;25.33;16.23;;;8.20;99.90;;;;;;5070561;28;20207;-73
2022/12/22 16:29:54;;;;;;;24.77;15.20;;;8.10;99.90;;;;;;5071166;28;20314;-73
2022/12/22 16:32:25;;;;;;;26.73;15.80;;;8.10;99.90;;;;;;5070437;28;20298;-73
2022/12/22 16:34:52;;;;;;;21.83;15.30;;;8.10;99.90;;;;;;5070657;28;20197;-73
2022/12/22 16:37:21;;;;;;;20.03;14.97;;;8.10;99.90;;;;;;5078973;28;20297;-74
2022/12/22 16:39:48;;;;;;;21.87;14.73;;;8.00;99.90;;;;;;5075062;28;20302;-73
2022/12/22 16:42:18;;;;;;;21.80;15.10;;;8.10;99.90;;;;;;5070841;28;20213;-73
2022/12/22 16:44:47;;;;;;;22.30;15.07;;;8.00;99.90;;;;;;5070599;28;20218;-73